createdAt,value
2018-09-05T00:00:43.831Z,99.90
2018-09-05T00:03:12.336Z,99.90
2018-09-05T00:05:40.838Z,99.90
2018-09-05T00:08:09.260Z,99.90
2018-09-05T00:10:37.742Z,99.90
2018-09-05T00:13:06.497Z,99.90
2018-09-05T00:15:34.970Z,99.90
2018-09-05T00:18:03.728Z,99.90
2018-09-05T00:20:32.209Z,99.90
2018-09-05T00:23:00.675Z,99.90
2018-09-05T00:25:29.126Z,99.90
2018-09-05T00:27:57.699Z,99.90
2018-09-05T00:30:26.179Z,99.90
2018-09-05T00:32:54.745Z,99.90
2018-09-05T00:35:23.245Z,99.90
2018-09-05T00:37:52.019Z,99.90
2018-09-05T00:40:20.614Z,99.90
2018-09-05T00:42:49.291Z,99.90
2018-09-05T00:45:18.670Z,99.90
2018-09-05T00:47:47.170Z,99.90
2018-09-05T00:50:15.714Z,99.90
2018-09-05T00:52:44.170Z,99.90
2018-09-05T00:55:12.648Z,99.90
2018-09-05T00:57:41.102Z,99.90
2018-09-05T01:00:09.731Z,99.90
2018-09-05T01:02:38.163Z,99.90
2018-09-05T01:05:06.728Z,99.90
2018-09-05T01:07:35.222Z,99.90
2018-09-05T01:10:03.704Z,99.90
2018-09-05T01:12:32.258Z,99.90
2018-09-05T01:15:00.728Z,99.90
2018-09-05T01:17:29.198Z,99.90
2018-09-05T01:19:57.653Z,99.90
2018-09-05T01:22:26.191Z,99.90
2018-09-05T01:24:54.665Z,99.90
2018-09-05T01:27:23.108Z,99.90
2018-09-05T01:29:51.637Z,99.90
2018-09-05T01:32:20.118Z,99.90
2018-09-05T01:34:49.228Z,99.90
2018-09-05T01:37:17.687Z,99.90
2018-09-05T01:39:46.148Z,99.90
2018-09-05T01:42:15.137Z,99.90
2018-09-05T01:44:43.575Z,99.90
2018-09-05T01:47:12.133Z,99.90
2018-09-05T01:49:40.597Z,99.90
2018-09-05T01:52:09.050Z,99.90
2018-09-05T01:54:37.494Z,99.90
2018-09-05T01:57:06.033Z,99.90
2018-09-05T01:59:34.543Z,99.90
2018-09-05T02:02:03.057Z,99.90
2018-09-05T02:04:31.548Z,99.90
2018-09-05T02:07:00.005Z,99.90
2018-09-05T02:09:29.183Z,99.90
2018-09-05T02:11:57.789Z,99.90
2018-09-05T02:14:26.253Z,99.90
2018-09-05T02:16:54.706Z,99.90
2018-09-05T02:19:23.852Z,99.90
2018-09-05T02:21:52.332Z,99.90
2018-09-05T02:24:20.770Z,99.90
2018-09-05T02:26:49.279Z,99.90
2018-09-05T02:29:17.714Z,99.90
2018-09-05T02:31:46.286Z,99.90
2018-09-05T02:34:14.744Z,99.90
2018-09-05T02:36:43.256Z,99.90
2018-09-05T02:39:12.436Z,99.90
2018-09-05T02:41:41.228Z,99.90
2018-09-05T02:44:15.030Z,99.90
2018-09-05T02:46:43.501Z,99.90
2018-09-05T02:49:11.924Z,99.90
2018-09-05T02:51:40.395Z,99.90
2018-09-05T02:54:08.851Z,99.90
2018-09-05T02:56:37.247Z,99.90
2018-09-05T02:59:05.843Z,99.90
2018-09-05T03:01:34.255Z,99.90
2018-09-05T03:04:02.808Z,99.90
2018-09-05T03:06:31.322Z,99.90
2018-09-05T03:08:59.773Z,99.90
2018-09-05T03:11:28.267Z,99.90
2018-09-05T03:13:56.832Z,99.90
2018-09-05T03:16:25.285Z,99.90
2018-09-05T03:18:53.734Z,99.90
2018-09-05T03:21:22.165Z,99.90
2018-09-05T03:23:50.623Z,99.90
2018-09-05T03:26:19.088Z,99.90
2018-09-05T03:28:47.534Z,99.90
2018-09-05T03:31:16.083Z,99.90
2018-09-05T03:33:44.538Z,99.90
2018-09-05T03:36:13.125Z,99.90
2018-09-05T03:38:41.828Z,99.90
2018-09-05T03:41:10.289Z,99.90
2018-09-05T03:43:38.776Z,99.90
2018-09-05T03:46:07.408Z,99.90
2018-09-05T03:48:36.047Z,99.90
2018-09-05T03:51:04.575Z,99.90
2018-09-05T03:53:33.058Z,99.90
2018-09-05T03:56:01.542Z,99.90
2018-09-05T03:58:29.961Z,99.90
2018-09-05T04:00:58.494Z,99.90
2018-09-05T04:03:27.004Z,99.90
2018-09-05T04:05:55.433Z,99.90
2018-09-05T04:08:23.912Z,99.90
2018-09-05T04:10:52.393Z,99.90
2018-09-05T04:13:20.878Z,99.90
2018-09-05T04:15:49.520Z,99.90
2018-09-05T04:18:17.983Z,99.90
2018-09-05T04:20:46.437Z,99.90
2018-09-05T04:23:14.959Z,99.90
2018-09-05T04:25:43.481Z,99.90
2018-09-05T04:28:12.049Z,99.90
2018-09-05T04:30:40.495Z,99.90
2018-09-05T04:33:09.033Z,99.90
2018-09-05T04:35:37.513Z,99.90
2018-09-05T04:38:06.008Z,99.90
2018-09-05T04:40:34.600Z,99.90
2018-09-05T04:43:03.077Z,99.90
2018-09-05T04:45:31.699Z,99.90
2018-09-05T04:48:00.191Z,99.90
2018-09-05T04:50:28.947Z,99.90
2018-09-05T04:52:57.428Z,99.90
2018-09-05T04:55:25.868Z,99.90
2018-09-05T04:57:54.356Z,99.90
2018-09-05T05:00:22.844Z,99.90
2018-09-05T05:02:51.358Z,99.90
2018-09-05T05:05:19.997Z,99.90
2018-09-05T05:07:48.562Z,99.90
2018-09-05T05:10:17.024Z,99.90
2018-09-05T05:12:45.540Z,99.90
2018-09-05T05:15:14.132Z,99.90
2018-09-05T05:17:44.060Z,99.90
2018-09-05T05:20:12.595Z,99.90
2018-09-05T05:22:41.758Z,99.90
2018-09-05T05:25:10.262Z,99.90
2018-09-05T05:27:38.746Z,99.90
2018-09-05T05:30:07.569Z,99.90
2018-09-05T05:32:36.079Z,99.90
2018-09-05T05:35:04.556Z,99.90
2018-09-05T05:37:32.999Z,99.90
2018-09-05T05:40:05.868Z,99.90
2018-09-05T05:42:35.098Z,99.90
2018-09-05T05:45:03.922Z,99.90
2018-09-05T05:47:33.194Z,99.90
2018-09-05T05:50:02.326Z,99.90
2018-09-05T05:52:31.226Z,99.90
2018-09-05T05:55:00.135Z,99.90
2018-09-05T05:57:29.095Z,99.90
2018-09-05T05:59:57.568Z,99.90
2018-09-05T06:02:26.059Z,99.90
2018-09-05T06:04:54.493Z,99.90
2018-09-05T06:07:22.983Z,99.90
2018-09-05T06:09:51.455Z,99.90
2018-09-05T06:12:19.925Z,99.90
2018-09-05T06:14:48.379Z,99.90
2018-09-05T06:17:17.145Z,99.90
2018-09-05T06:19:45.696Z,99.90
2018-09-05T06:22:14.136Z,99.90
2018-09-05T06:24:42.608Z,99.90
2018-09-05T06:27:11.075Z,99.90
2018-09-05T06:29:39.585Z,99.90
2018-09-05T06:32:08.035Z,99.90
2018-09-05T06:34:36.476Z,99.90
2018-09-05T06:37:05.264Z,99.90
2018-09-05T06:39:33.738Z,99.90
2018-09-05T06:42:02.206Z,99.90
2018-09-05T06:44:30.705Z,99.90
2018-09-05T06:49:27.285Z,99.90
2018-09-05T06:51:55.716Z,99.90
2018-09-05T06:54:24.196Z,99.90
2018-09-05T06:56:52.648Z,99.90
2018-09-05T06:59:21.117Z,99.90
2018-09-05T07:01:49.780Z,99.90
2018-09-05T07:04:18.269Z,99.90
2018-09-05T07:06:47.030Z,99.90
2018-09-05T07:09:15.581Z,99.90
2018-09-05T07:11:44.142Z,99.90
2018-09-05T07:14:12.662Z,99.90
2018-09-05T07:16:41.196Z,99.90
2018-09-05T07:19:10.817Z,99.90
2018-09-05T07:21:39.317Z,99.90
2018-09-05T07:24:08.112Z,99.90
2018-09-05T07:26:37.152Z,99.90
2018-09-05T07:29:05.993Z,99.90
2018-09-05T07:31:34.549Z,99.90
2018-09-05T07:34:03.029Z,99.90
2018-09-05T07:36:31.564Z,99.90
2018-09-05T07:39:00.268Z,99.90
2018-09-05T07:41:28.743Z,99.90
2018-09-05T07:43:57.220Z,99.90
2018-09-05T07:46:25.667Z,99.90
2018-09-05T07:48:54.239Z,99.90
2018-09-05T07:51:22.676Z,99.90
2018-09-05T07:53:51.177Z,99.90
2018-09-05T07:56:19.678Z,99.90
2018-09-05T07:58:48.246Z,99.90
2018-09-05T08:01:16.716Z,99.90
2018-09-05T08:03:45.233Z,99.90
2018-09-05T08:06:13.703Z,99.90
2018-09-05T08:08:42.203Z,99.90
2018-09-05T08:11:10.705Z,99.90
2018-09-05T08:13:39.221Z,99.90
2018-09-05T08:16:08.101Z,99.90
2018-09-05T08:18:36.588Z,99.90
2018-09-05T08:21:05.224Z,99.90
2018-09-05T08:23:33.716Z,99.90
2018-09-05T08:26:02.212Z,99.90
2018-09-05T08:28:30.721Z,99.90
2018-09-05T08:30:59.185Z,99.90
2018-09-05T08:33:27.693Z,99.90
2018-09-05T08:35:56.354Z,99.90
2018-09-05T08:38:24.796Z,99.90
2018-09-05T08:40:53.203Z,99.90
2018-09-05T08:43:21.722Z,99.90
2018-09-05T08:45:50.517Z,99.90
2018-09-05T08:48:18.799Z,99.90
2018-09-05T08:50:47.442Z,99.90
2018-09-05T08:53:15.972Z,99.90
2018-09-05T08:55:44.446Z,99.90
2018-09-05T08:58:12.886Z,99.90
2018-09-05T09:00:41.450Z,99.90
2018-09-05T09:03:09.896Z,99.90
2018-09-05T09:05:38.630Z,99.90
2018-09-05T09:08:07.140Z,99.90
2018-09-05T09:10:35.628Z,99.90
2018-09-05T09:13:04.205Z,99.90
2018-09-05T09:15:32.756Z,99.90
2018-09-05T09:18:01.284Z,99.90
2018-09-05T09:20:30.150Z,99.90
2018-09-05T09:22:58.634Z,99.90
2018-09-05T09:25:27.186Z,99.90
2018-09-05T09:27:55.758Z,99.90
2018-09-05T09:30:24.227Z,99.90
2018-09-05T09:32:52.667Z,99.90
2018-09-05T09:35:21.179Z,99.90
2018-09-05T09:37:49.643Z,99.90
2018-09-05T09:40:18.108Z,99.90
2018-09-05T09:42:46.565Z,99.90
2018-09-05T09:45:15.041Z,99.90
2018-09-05T09:47:43.609Z,99.90
2018-09-05T09:50:12.068Z,99.90
2018-09-05T09:52:40.533Z,99.90
2018-09-05T09:55:09.249Z,99.90
2018-09-05T09:57:38.230Z,99.90
2018-09-05T10:00:07.533Z,99.90
2018-09-05T10:02:41.475Z,99.90
2018-09-05T10:05:15.342Z,99.90
2018-09-05T10:07:49.300Z,99.90
2018-09-05T10:10:23.239Z,99.90
2018-09-05T10:12:52.450Z,99.90
2018-09-05T10:15:26.279Z,99.90
2018-09-05T10:18:00.087Z,99.90
2018-09-05T10:20:28.579Z,99.90
2018-09-05T10:22:57.083Z,99.90
2018-09-05T10:25:25.688Z,99.90
2018-09-05T10:27:54.164Z,99.90
2018-09-05T10:30:22.704Z,99.90
2018-09-05T10:32:51.162Z,99.90
2018-09-05T10:35:19.602Z,99.90
2018-09-05T10:37:48.094Z,99.90
2018-09-05T10:40:16.562Z,99.90
2018-09-05T10:42:45.090Z,99.60
2018-09-05T10:45:13.557Z,99.90
2018-09-05T10:47:42.004Z,99.90
2018-09-05T10:50:10.440Z,99.50
2018-09-05T10:52:38.903Z,97.90
2018-09-05T10:55:07.367Z,99.90
2018-09-05T10:57:35.869Z,99.00
2018-09-05T11:00:04.417Z,99.90
2018-09-05T11:02:32.849Z,98.80
2018-09-05T11:05:01.299Z,99.90
2018-09-05T11:07:29.817Z,99.30
2018-09-05T11:09:58.267Z,99.60
2018-09-05T11:12:26.771Z,99.60
2018-09-05T11:14:55.264Z,98.00
2018-09-05T11:17:23.697Z,98.80
2018-09-05T11:19:52.255Z,98.20
2018-09-05T11:22:20.831Z,98.60
2018-09-05T11:24:49.278Z,99.30
2018-09-05T11:27:17.722Z,98.40
2018-09-05T11:29:46.216Z,97.70
2018-09-05T11:32:14.692Z,98.80
2018-09-05T11:34:43.148Z,97.90
2018-09-05T11:37:11.627Z,98.30
2018-09-05T11:39:40.154Z,98.30
2018-09-05T11:42:08.712Z,97.70
2018-09-05T11:44:37.162Z,98.10
2018-09-05T11:47:05.756Z,96.80
2018-09-05T11:49:34.853Z,97.20
2018-09-05T11:52:03.487Z,96.20
2018-09-05T11:54:31.970Z,97.40
2018-09-05T11:57:00.431Z,98.20
2018-09-05T11:59:28.938Z,98.60
2018-09-05T12:01:57.762Z,97.90
2018-09-05T12:04:26.261Z,97.60
2018-09-05T12:06:54.886Z,97.80
2018-09-05T12:09:23.419Z,98.80
2018-09-05T12:11:51.936Z,98.30
2018-09-05T12:14:20.476Z,97.80
2018-09-05T12:16:48.964Z,97.70
2018-09-05T12:19:17.468Z,98.10
2018-09-05T12:21:46.099Z,97.50
2018-09-05T12:24:14.585Z,96.90
2018-09-05T12:26:43.038Z,97.60
2018-09-05T12:29:12.749Z,98.30
2018-09-05T12:31:41.986Z,97.90
2018-09-05T12:34:11.022Z,97.80
2018-09-05T12:36:39.462Z,96.70
2018-09-05T12:39:10.914Z,96.30
2018-09-05T12:41:39.479Z,97.30
2018-09-05T12:44:08.222Z,97.20
2018-09-05T12:46:37.100Z,97.20
2018-09-05T12:49:05.804Z,98.00
2018-09-05T12:51:34.303Z,98.30
2018-09-05T12:54:02.862Z,97.80
2018-09-05T12:56:31.298Z,96.70
2018-09-05T12:58:59.819Z,97.40
2018-09-05T13:01:28.367Z,97.60
2018-09-05T13:03:56.958Z,98.80
2018-09-05T13:06:25.446Z,96.70
2018-09-05T13:08:53.919Z,97.40
2018-09-05T13:11:22.472Z,98.00
2018-09-05T13:13:50.915Z,98.30
2018-09-05T13:16:19.382Z,97.20
2018-09-05T13:18:47.876Z,97.80
2018-09-05T13:21:16.411Z,96.50
2018-09-05T13:23:44.887Z,98.30
2018-09-05T13:26:13.349Z,98.50
2018-09-05T13:28:41.819Z,97.10
2018-09-05T13:31:10.311Z,96.40
2018-09-05T13:33:39.399Z,97.20
2018-09-05T13:36:08.044Z,96.70
2018-09-05T13:38:36.627Z,97.30
2018-09-05T13:41:05.148Z,95.40
2018-09-05T13:43:33.697Z,96.40
2018-09-05T13:46:02.179Z,96.70
2018-09-05T13:48:30.645Z,96.20
2018-09-05T13:50:59.147Z,97.90
2018-09-05T13:53:27.638Z,97.00
2018-09-05T13:55:56.168Z,97.60
2018-09-05T13:58:24.666Z,97.10
2018-09-05T14:00:53.178Z,95.30
2018-09-05T14:03:21.654Z,96.20
2018-09-05T14:05:50.190Z,95.30
2018-09-05T14:08:18.654Z,93.60
2018-09-05T14:10:47.118Z,94.50
2018-09-05T14:13:15.584Z,95.20
2018-09-05T14:15:44.054Z,95.40
2018-09-05T14:18:12.981Z,95.40
2018-09-05T14:20:41.605Z,95.20
2018-09-05T14:23:10.033Z,95.50
2018-09-05T14:25:38.531Z,95.80
2018-09-05T14:28:07.807Z,96.30
2018-09-05T14:30:36.374Z,95.30
2018-09-05T14:33:04.863Z,95.60
2018-09-05T14:35:33.339Z,96.10
2018-09-05T14:38:01.893Z,96.40
2018-09-05T14:40:30.373Z,95.90
2018-09-05T14:42:58.894Z,96.30
2018-09-05T14:45:27.362Z,96.90
2018-09-05T14:47:55.851Z,96.50
2018-09-05T14:50:24.306Z,96.20
2018-09-05T14:52:52.795Z,95.80
2018-09-05T14:55:21.297Z,95.80
2018-09-05T14:57:49.948Z,96.50
2018-09-05T15:00:18.445Z,96.30
2018-09-05T15:02:46.931Z,97.00
2018-09-05T15:05:15.426Z,96.20
2018-09-05T15:07:49.261Z,96.20
2018-09-05T15:10:17.926Z,96.40
2018-09-05T15:12:46.840Z,97.20
2018-09-05T15:15:16.134Z,96.50
2018-09-05T15:17:44.688Z,96.30
2018-09-05T15:20:13.126Z,96.20
2018-09-05T15:22:41.957Z,96.60
2018-09-05T15:25:10.741Z,96.70
2018-09-05T15:27:39.216Z,96.90
2018-09-05T15:30:08.477Z,96.60
2018-09-05T15:32:36.990Z,96.90
2018-09-05T15:35:05.828Z,97.30
2018-09-05T15:37:34.259Z,98.10
2018-09-05T15:40:02.900Z,98.00
2018-09-05T15:42:31.936Z,98.60
2018-09-05T15:45:00.459Z,99.00
2018-09-05T15:47:28.930Z,98.60
2018-09-05T15:49:57.469Z,98.40
2018-09-05T15:52:26.126Z,98.70
2018-09-05T15:54:54.635Z,98.50
2018-09-05T15:57:23.255Z,98.40
2018-09-05T15:59:52.657Z,98.60
2018-09-05T16:02:21.182Z,98.70
2018-09-05T16:04:49.684Z,98.80
2018-09-05T16:07:18.149Z,99.20
2018-09-05T16:09:46.638Z,99.40
2018-09-05T16:12:15.097Z,99.30
2018-09-05T16:14:43.626Z,99.60
2018-09-05T16:17:12.103Z,99.90
2018-09-05T16:19:40.670Z,99.90
2018-09-05T16:22:09.148Z,99.90
2018-09-05T16:24:37.682Z,99.90
2018-09-05T16:27:06.205Z,99.90
2018-09-05T16:29:34.716Z,99.90
2018-09-05T16:32:03.184Z,99.90
2018-09-05T16:34:31.664Z,99.90
2018-09-05T16:37:00.130Z,99.90
2018-09-05T16:39:28.729Z,99.90
2018-09-05T16:41:57.372Z,99.90
2018-09-05T16:44:26.137Z,99.90
2018-09-05T16:46:54.659Z,99.90
2018-09-05T16:49:23.113Z,99.90
2018-09-05T16:51:51.824Z,99.90
2018-09-05T16:54:20.331Z,99.90
2018-09-05T16:56:49.488Z,99.90
2018-09-05T16:59:19.048Z,99.90
2018-09-05T17:01:47.535Z,99.90
2018-09-05T17:04:16.048Z,99.90
2018-09-05T17:06:44.628Z,99.90
2018-09-05T17:09:13.582Z,99.90
2018-09-05T17:11:42.158Z,99.90
2018-09-05T17:14:10.809Z,99.90
2018-09-05T17:16:39.482Z,99.90
2018-09-05T17:19:08.253Z,99.90
2018-09-05T17:21:36.740Z,99.90
2018-09-05T17:24:05.650Z,99.90
2018-09-05T17:26:34.434Z,99.90
2018-09-05T17:29:02.947Z,99.90
2018-09-05T17:31:31.438Z,99.90
2018-09-05T17:34:00.593Z,99.90
2018-09-05T17:36:29.916Z,99.90
2018-09-05T17:38:58.494Z,99.90
2018-09-05T17:41:26.988Z,99.90
2018-09-05T17:43:55.481Z,99.90
2018-09-05T17:46:24.572Z,99.90
2018-09-05T17:48:53.252Z,99.90
2018-09-05T17:51:21.729Z,99.90
2018-09-05T17:53:50.527Z,99.90
2018-09-05T17:56:19.054Z,99.90
2018-09-05T17:58:47.823Z,99.90
2018-09-05T18:01:19.196Z,99.90
2018-09-05T18:03:47.951Z,99.90
2018-09-05T18:06:16.556Z,99.90
2018-09-05T18:08:46.086Z,99.90
2018-09-05T18:11:14.855Z,99.90
2018-09-05T18:13:43.742Z,99.90
2018-09-05T18:16:13.865Z,99.90
2018-09-05T18:18:43.412Z,99.90
2018-09-05T18:21:12.367Z,99.90
2018-09-05T18:23:41.210Z,99.90
2018-09-05T18:26:10.394Z,99.90
2018-09-05T18:28:39.206Z,99.90
2018-09-05T18:31:09.005Z,99.90
2018-09-05T18:33:38.429Z,99.90
2018-09-05T18:36:07.160Z,99.90
2018-09-05T18:38:35.777Z,99.90
2018-09-05T18:41:05.081Z,99.90
2018-09-05T18:43:33.777Z,99.90
2018-09-05T18:46:02.480Z,99.90
2018-09-05T18:48:31.029Z,99.90
2018-09-05T18:51:00.687Z,99.90
2018-09-05T18:53:30.022Z,99.90
2018-09-05T18:55:58.873Z,99.90
2018-09-05T18:58:28.286Z,99.90
2018-09-05T19:00:57.543Z,99.90
2018-09-05T19:03:26.595Z,99.90
2018-09-05T19:05:55.228Z,99.90
2018-09-05T19:08:24.407Z,99.90
2018-09-05T19:10:52.985Z,99.90
2018-09-05T19:13:21.516Z,99.90
2018-09-05T19:15:50.127Z,99.90
2018-09-05T19:18:18.873Z,99.90
2018-09-05T19:20:47.747Z,99.90
2018-09-05T19:23:18.110Z,99.90
2018-09-05T19:25:47.174Z,99.90
2018-09-05T19:28:15.803Z,99.90
2018-09-05T19:30:44.497Z,99.90
2018-09-05T19:33:13.708Z,99.90
2018-09-05T19:35:42.324Z,99.90
2018-09-05T19:38:11.017Z,99.90
2018-09-05T19:40:39.616Z,99.90
2018-09-05T19:43:08.204Z,99.90
2018-09-05T19:45:37.652Z,99.90
2018-09-05T19:48:06.575Z,99.90
2018-09-05T19:50:35.187Z,99.90
2018-09-05T19:53:03.873Z,99.90
2018-09-05T19:55:32.571Z,99.90
2018-09-05T19:58:01.549Z,99.90
2018-09-05T20:00:30.512Z,99.90
2018-09-05T20:02:59.363Z,99.90
2018-09-05T20:05:28.778Z,99.90
2018-09-05T20:07:57.556Z,99.90
2018-09-05T20:10:26.096Z,99.90
2018-09-05T20:12:54.614Z,99.90
2018-09-05T20:15:24.153Z,99.90
2018-09-05T20:17:52.777Z,99.90
2018-09-05T20:20:21.835Z,99.90
2018-09-05T20:22:50.421Z,99.90
2018-09-05T20:25:18.971Z,99.90
2018-09-05T20:27:47.640Z,99.90
2018-09-05T20:30:16.742Z,99.90
2018-09-05T20:32:45.298Z,99.90
2018-09-05T20:35:13.837Z,99.90
2018-09-05T20:37:42.419Z,99.90
2018-09-05T20:40:12.170Z,99.90
2018-09-05T20:42:40.898Z,99.90
2018-09-05T20:45:10.274Z,99.90
2018-09-05T20:47:39.439Z,99.90
2018-09-05T20:50:08.127Z,99.90
2018-09-05T20:52:36.773Z,99.90
2018-09-05T20:55:05.558Z,99.90
2018-09-05T20:57:34.621Z,99.90
2018-09-05T21:00:03.327Z,99.90
2018-09-05T21:02:32.077Z,99.90
2018-09-05T21:05:00.719Z,99.90
2018-09-05T21:07:29.504Z,99.90
2018-09-05T21:09:57.998Z,99.90
2018-09-05T21:12:27.242Z,99.90
2018-09-05T21:14:55.790Z,99.90
2018-09-05T21:17:24.260Z,99.90
2018-09-05T21:19:52.754Z,99.90
2018-09-05T21:22:21.386Z,99.90
2018-09-05T21:24:49.898Z,99.90
2018-09-05T21:27:18.504Z,99.90
2018-09-05T21:29:46.936Z,99.90
2018-09-05T21:32:15.680Z,99.90
2018-09-05T21:34:44.135Z,99.90
2018-09-05T21:37:12.624Z,99.90
2018-09-05T21:39:41.076Z,99.90
2018-09-05T21:42:09.660Z,99.90
2018-09-05T21:44:38.122Z,99.90
2018-09-05T21:47:06.683Z,99.90
2018-09-05T21:49:35.185Z,99.90
2018-09-05T21:52:03.687Z,99.90
2018-09-05T21:54:32.533Z,99.90
2018-09-05T21:57:01.019Z,99.90
2018-09-05T21:59:29.494Z,99.90
2018-09-05T22:01:58.093Z,99.90
2018-09-05T22:04:26.549Z,99.90
2018-09-05T22:06:55.122Z,99.90
2018-09-05T22:09:23.607Z,99.90
2018-09-05T22:11:52.104Z,99.90
2018-09-05T22:14:20.593Z,99.90
2018-09-05T22:16:49.110Z,99.90
2018-09-05T22:19:17.650Z,99.90
2018-09-05T22:21:46.090Z,99.90
2018-09-05T22:24:14.528Z,99.90
2018-09-05T22:26:43.003Z,99.90
2018-09-05T22:29:11.481Z,99.90
2018-09-05T22:31:39.958Z,99.90
2018-09-05T22:34:08.749Z,99.90
2018-09-05T22:36:37.225Z,99.90
2018-09-05T22:39:07.075Z,99.90
2018-09-05T22:41:35.530Z,99.90
2018-09-05T22:44:15.230Z,99.90
2018-09-05T22:46:54.847Z,99.90
2018-09-05T22:50:06.815Z,99.90
2018-09-05T22:53:23.861Z,99.90
2018-09-05T22:57:13.154Z,99.90
2018-09-05T22:59:53.247Z,99.90
2018-09-05T23:06:39.616Z,99.90
2018-09-05T23:09:08.989Z,99.90
2018-09-05T23:11:57.305Z,99.90
2018-09-05T23:14:38.051Z,99.90
2018-09-05T23:17:18.141Z,99.90
2018-09-05T23:19:58.045Z,99.90
2018-09-05T23:22:36.606Z,99.90
2018-09-05T23:25:05.107Z,99.90
2018-09-05T23:27:33.568Z,99.90
2018-09-05T23:30:02.135Z,99.90
2018-09-05T23:32:30.722Z,99.90
2018-09-05T23:34:59.156Z,99.90
2018-09-05T23:37:27.608Z,99.90
2018-09-05T23:39:56.089Z,99.90
2018-09-05T23:42:24.607Z,99.90
2018-09-05T23:44:53.057Z,99.90
2018-09-05T23:47:21.497Z,99.90
2018-09-05T23:49:50.048Z,99.90
2018-09-05T23:52:18.521Z,99.90
2018-09-05T23:54:47.031Z,99.90
2018-09-05T23:57:15.557Z,99.90
2018-09-05T23:59:44.007Z,99.90
